Hiroshima, Japan

9:43 PM JST on 三月 27, 2017 (GMT +0900)
Miyajima Highway | | Change Station

高度 9 ft 34.39 °N, 132.42 °E | Updated 5 minutes ago

だいたい曇
だいたい曇
48.9 °F
体感気温 49 °F
1.9
風 変数 風 から 北北西
Gusts 3.7 Mph

今日
高い -- | 低 -- °F
--% 降水確率
昨日
高い -- | 低 -- °F
Precip. -- インチ
気圧 30.10 インチ
視程 6.2 マイル
やや曇 3000 ft
だいたい曇 8000 ft
だいたい曇 10000 ft
体感気温(寒さ) 49 °F
露点温度 40 °F
湿度 71%
降水 0.10 インチ
積雪深 利用不可。
6:04 AM 6:27 PM
二十六夜, 0% visible
METAR RJOI 271155Z 26005KT 9999 SCT030 BKN080 BKN100 07/04 A3010 RMK SHRAE34 SLP191 P0002 60002 70011 T00670044 10122 20067 51020
気圧 30.10 インチ
視程 6.2 マイル
やや曇 3000 ft
だいたい曇 8000 ft
だいたい曇 10000 ft
体感気温(寒さ) 49 °F
露点温度 40 °F
湿度 71%
降水 0.10 インチ
積雪深 利用不可。
6:04 AM 6:27 PM
二十六夜, 0% visible
METAR RJOI 271155Z 26005KT 9999 SCT030 BKN080 BKN100 07/04 A3010 RMK SHRAE34 SLP191 P0002 60002 70011 T00670044 10122 20067 51020

Get Severe Weather Alerts

Thanks for signing up!

Be on the lookout for a verification email in your inbox.

You'll start receiving the daily forecast at 8 AM.

×

10-Day Weather Forecast

No radar image for this location.
×

Almanac

天文

Mar. 27, 2017 入り
実時間
常用薄明
航海薄明
天文薄明
可視光の長さ
可照時間
Tomorrow will be .
, % of the Moon is Illuminated

今日の極値

Country Highs Country Lows

Community

WunderPhotos

Upload Photos

1,962,540 写真がアップロードされました!

WunderBlog® & News

Nearby

空気品質

  空気品質 大気質指数 汚染物質
Not available.

積雪深

Station Depth 高度

地震活動

Distance Mag. Time & Date
Minimum magnitude displayed is 2.5.

地震活動

Distance Mag. Time & Date
Minimum magnitude displayed is 2.5.

沿岸の水温

地名 気温

Stations

最寄りの気象観測所

観測所位置 温度 体感気温(寒さ) 露点温度 湿度 Precip. 高度 更新日時 タイプする